KTYR/TYR METAR and TAF weather

Enter ICAO airport designator
Station Type Date Time Source
KTYR METAR 2020/04/06 10:53 UTC NOAA

KTYR 061053Z AUTO 08003KT 8SM CLR 16/14 A3001 RMK AO2 SLP157 T01610144


Station Type Date Time Source
KTYR Decoded METAR 2020/04/06 10:53 UTC NOAA

TYLER POUNDS FIELDS, TX, United States (KTYR) 32-21N 095-24W 165M
Apr 06, 2020 - 06:53 AM EDT / 2020.04.06 1053 UTC
Wind: from the E (080 degrees) at 3 MPH (3 KT):0
Visibility: 8 mile(s):0
Sky conditions: clear
Temperature: 61.0 F (16.1 C)
Dew Point: 57.9 F (14.4 C)
Relative Humidity: 89%
Pressure (altimeter): 30.01 in. Hg (1016 hPa)
ob: KTYR 061053Z AUTO 08003KT 8SM CLR 16/14 A3001 RMK AO2 SLP157 T01610144
cycle: 11

Station Type Date Time Source
KTYR TAF 2020/04/06 12:22 UTC NOAA

TAF KTYR 061120Z 0612/0712 08003KT P6SM SCT040
TEMPO 0612/0616 4SM BR BKN015
FM061600 17006KT P6SM OVC050
FM070200 18005KT P6SM VCSH OVC030
FM070400 16007KT P6SM OVC010

Example: see airport list